Time;durP1;ratioP1;P1;durP2;ratioP2;P2;SDS_P1;SDS_P2;PMS_P1;PMS_P2;Temp;Humidity;BMP_temperature;BMP_pressure;BME280_temperature;BME280_humidity;BME280_pressure;Samples;Min_cycle;Max_cycle;Signal;HPM_P1;HPM_P2
2023/05/11 00:01:49;;;;;;;16.80;12.95;;;14.00;99.90;;;;;;5021220;28;20283;-75
2023/05/11 00:04:17;;;;;;;16.98;13.45;;;13.90;99.90;;;;;;5024330;28;20279;-75
2023/05/11 00:06:44;;;;;;;19.65;14.65;;;14.00;99.90;;;;;;5022301;28;20227;-75
2023/05/11 00:09:11;;;;;;;18.23;14.18;;;13.90;99.90;;;;;;5014999;28;20216;-75
2023/05/11 00:11:39;;;;;;;20.55;15.00;;;13.90;99.90;;;;;;5022685;28;20238;-74
2023/05/11 00:14:06;;;;;;;17.67;14.93;;;13.80;99.90;;;;;;5023118;28;20193;-75
2023/05/11 00:16:33;;;;;;;19.05;15.13;;;13.90;99.90;;;;;;5023002;28;20259;-75
2023/05/11 00:19:00;;;;;;;21.15;15.23;;;13.80;99.90;;;;;;5012889;28;20307;-76
2023/05/11 00:21:27;;;;;;;19.77;16.98;;;13.80;99.90;;;;;;5022026;28;20232;-75
2023/05/11 00:23:54;;;;;;;26.08;16.10;;;13.80;99.90;;;;;;5021407;28;20246;-74
2023/05/11 00:26:21;;;;;;;25.40;18.20;;;13.80;99.90;;;;;;5030202;28;20304;-75
2023/05/11 00:28:49;;;;;;;25.17;18.13;;;13.80;99.90;;;;;;5030323;28;20239;-74
2023/05/11 00:31:16;;;;;;;22.33;18.02;;;13.80;99.90;;;;;;5028969;28;20244;-75
2023/05/11 00:33:43;;;;;;;23.40;17.98;;;13.80;99.90;;;;;;5011542;28;20293;-75
2023/05/11 00:36:11;;;;;;;25.00;17.52;;;13.80;99.90;;;;;;5010256;28;20195;-74
2023/05/11 00:38:39;;;;;;;29.20;18.67;;;13.80;99.90;;;;;;5022246;28;20201;-74
2023/05/11 00:41:06;;;;;;;37.15;20.52;;;13.80;99.90;;;;;;5022468;28;20250;-75
2023/05/11 00:43:33;;;;;;;26.10;19.60;;;13.80;99.90;;;;;;5012824;28;20232;-75
2023/05/11 00:46:03;;;;;;;28.83;19.63;;;13.80;99.90;;;;;;5019619;28;20303;-75
2023/05/11 00:48:30;;;;;;;34.72;21.65;;;13.70;99.90;;;;;;5026956;28;20226;-75
2023/05/11 00:50:58;;;;;;;37.03;19.75;;;13.70;99.90;;;;;;5008026;28;20284;-76
2023/05/11 00:53:25;;;;;;;30.83;21.63;;;13.80;99.90;;;;;;5014522;28;20208;-75
2023/05/11 00:55:53;;;;;;;34.13;21.45;;;13.80;99.90;;;;;;5005946;28;20264;-75
2023/05/11 00:58:20;;;;;;;36.22;23.85;;;13.80;99.90;;;;;;4998812;28;20205;-74
2023/05/11 01:00:48;;;;;;;33.85;20.40;;;13.70;99.90;;;;;;5020384;28;20221;-75
2023/05/11 01:03:17;;;;;;;33.80;22.55;;;13.70;99.90;;;;;;5031633;28;20197;-75
2023/05/11 01:06:26;;;;;;;39.80;23.65;;;13.70;99.90;;;;;;5038266;28;20208;-75
2023/05/11 01:09:00;;;;;;;40.30;23.48;;;13.70;99.90;;;;;;5016838;28;20303;-75
2023/05/11 01:11:32;;;;;;;41.20;25.88;;;13.70;99.90;;;;;;5023595;28;20258;-75
2023/05/11 01:14:06;;;;;;;42.85;26.73;;;13.70;99.90;;;;;;5022128;28;20643;-75
2023/05/11 01:16:36;;;;;;;49.33;26.15;;;13.70;99.90;;;;;;5024830;28;20231;-75
2023/05/11 01:19:12;;;;;;;38.35;24.35;;;13.70;99.90;;;;;;5020065;28;20303;-75
2023/05/11 01:21:40;;;;;;;44.58;26.77;;;13.70;99.90;;;;;;5014949;28;20295;-75
2023/05/11 01:24:28;;;;;;;36.78;23.52;;;13.60;99.90;;;;;;5012705;28;20644;-76
2023/05/11 01:27:14;;;;;;;46.38;26.80;;;13.60;99.90;;;;;;5004900;28;20605;-75
2023/05/11 01:29:59;;;;;;;45.97;26.00;;;13.60;99.90;;;;;;5005118;28;20220;-75
2023/05/11 01:32:31;;;;;;;47.97;26.65;;;13.60;99.90;;;;;;5008368;28;20216;-76
2023/05/11 01:35:06;;;;;;;40.92;25.10;;;13.50;99.90;;;;;;5021490;28;20683;-76
2023/05/11 01:37:34;;;;;;;40.70;25.73;;;13.50;99.90;;;;;;5024187;28;20643;-76
2023/05/11 01:40:05;;;;;;;49.50;27.27;;;13.50;99.90;;;;;;5008782;28;20217;-74
2023/05/11 01:42:35;;;;;;;52.83;27.23;;;13.70;99.90;;;;;;5018210;28;20262;-74
2023/05/11 01:45:06;;;;;;;48.58;25.02;;;13.50;99.90;;;;;;5015315;28;20196;-75
2023/05/11 01:47:36;;;;;;;44.47;27.35;;;13.50;99.90;;;;;;5010184;28;20201;-76
2023/05/11 01:50:06;;;;;;;40.03;26.08;;;13.50;99.90;;;;;;5003698;28;20216;-74
2023/05/11 01:52:34;;;;;;;38.50;24.52;;;13.50;99.90;;;;;;5009778;28;20289;-75
2023/05/11 01:55:04;;;;;;;40.50;25.02;;;13.40;99.90;;;;;;5008642;28;20196;-76
2023/05/11 01:57:32;;;;;;;41.47;25.65;;;13.50;99.90;;;;;;5019643;28;20276;-76
2023/05/11 02:00:00;;;;;;;54.22;28.02;;;13.50;99.90;;;;;;5018868;28;20306;-75
2023/05/11 02:02:28;;;;;;;44.58;27.02;;;13.40;99.90;;;;;;5021472;28;20215;-76
2023/05/11 02:04:59;;;;;;;48.78;26.17;;;13.40;99.90;;;;;;5017261;28;20197;-75
2023/05/11 02:07:29;;;;;;;42.42;24.35;;;13.40;99.90;;;;;;5008800;28;20227;-74
2023/05/11 02:09:58;;;;;;;47.63;27.42;;;13.50;99.90;;;;;;5018079;28;20692;-74
2023/05/11 02:12:26;;;;;;;40.70;25.92;;;13.40;99.90;;;;;;5018159;28;20290;-74
2023/05/11 02:14:55;;;;;;;45.50;28.08;;;13.50;99.90;;;;;;5022018;28;20197;-76
2023/05/11 02:17:24;;;;;;;42.60;26.80;;;13.50;99.90;;;;;;5031660;28;20196;-75
2023/05/11 02:19:51;;;;;;;41.20;24.38;;;13.50;99.90;;;;;;5018421;28;20227;-74
2023/05/11 02:22:22;;;;;;;48.03;27.90;;;13.50;99.90;;;;;;5018298;28;20616;-74
2023/05/11 02:24:50;;;;;;;43.30;25.17;;;13.50;99.90;;;;;;5016054;28;20284;-74
2023/05/11 02:27:17;;;;;;;46.95;27.92;;;13.50;99.90;;;;;;5022309;28;20228;-74
2023/05/11 02:29:44;;;;;;;45.58;25.13;;;13.60;99.90;;;;;;5013182;28;20572;-75
2023/05/11 02:32:16;;;;;;;47.10;28.75;;;13.60;99.90;;;;;;5020626;28;20197;-75
2023/05/11 02:34:45;;;;;;;44.90;27.23;;;13.60;99.90;;;;;;5022256;28;20621;-74
2023/05/11 02:37:20;;;;;;;50.67;29.30;;;13.50;99.90;;;;;;5004263;28;20616;-75
2023/05/11 02:39:57;;;;;;;45.97;26.77;;;13.50;99.90;;;;;;5023332;28;20227;-75
2023/05/11 02:42:27;;;;;;;39.15;22.70;;;13.50;99.90;;;;;;5012267;28;20205;-74
2023/05/11 02:44:58;;;;;;;41.72;26.65;;;13.50;99.90;;;;;;5027281;28;20239;-75
2023/05/11 02:47:28;;;;;;;49.38;29.05;;;13.50;99.90;;;;;;5025111;28;20299;-75
2023/05/11 02:49:58;;;;;;;39.08;23.95;;;13.50;99.90;;;;;;5023174;28;20717;-75
2023/05/11 02:52:28;;;;;;;44.03;25.20;;;13.50;99.90;;;;;;5025526;28;20195;-75
2023/05/11 02:54:58;;;;;;;42.03;26.42;;;13.50;99.90;;;;;;5024736;28;20214;-75
2023/05/11 02:57:26;;;;;;;37.58;24.27;;;13.50;99.90;;;;;;5019531;28;20193;-74
2023/05/11 03:00:01;;;;;;;42.10;23.35;;;13.50;99.90;;;;;;5040793;28;20303;-75
2023/05/11 03:02:29;;;;;;;41.15;24.70;;;13.60;99.90;;;;;;5021669;28;20199;-76
2023/05/11 03:04:56;;;;;;;32.25;22.35;;;13.60;99.90;;;;;;5021909;28;20246;-74
2023/05/11 03:07:23;;;;;;;38.58;25.95;;;13.60;99.90;;;;;;5029994;28;20210;-76
2023/05/11 03:09:49;;;;;;;36.05;23.23;;;13.60;99.90;;;;;;5035423;28;20302;-76
2023/05/11 03:12:18;;;;;;;38.55;25.83;;;13.60;99.90;;;;;;5027127;28;20525;-75
2023/05/11 03:14:45;;;;;;;35.42;24.02;;;13.60;99.90;;;;;;5018513;28;20546;-76
2023/05/11 03:17:13;;;;;;;35.72;22.60;;;13.60;99.90;;;;;;5014793;28;20531;-74
2023/05/11 03:19:41;;;;;;;41.55;27.52;;;13.50;99.90;;;;;;5022732;28;20223;-74
2023/05/11 03:22:09;;;;;;;36.42;22.88;;;13.60;99.90;;;;;;5023134;28;20244;-76
2023/05/11 03:24:37;;;;;;;35.83;23.05;;;13.50;99.90;;;;;;5027821;28;20581;-75
2023/05/11 03:27:05;;;;;;;33.28;23.33;;;13.50;99.90;;;;;;5020180;28;20220;-75
2023/05/11 03:29:37;;;;;;;34.75;23.67;;;13.60;99.90;;;;;;5018813;28;20230;-76
2023/05/11 03:32:04;;;;;;;36.50;22.35;;;13.50;99.90;;;;;;5018979;28;20236;-74
2023/05/11 03:34:31;;;;;;;37.50;24.27;;;13.50;99.90;;;;;;5025492;28;20244;-75
2023/05/11 03:37:00;;;;;;;38.42;23.08;;;13.50;99.90;;;;;;5018973;28;20599;-75
2023/05/11 03:39:30;;;;;;;37.15;24.65;;;13.60;99.90;;;;;;5013307;28;20255;-76
2023/05/11 03:41:58;;;;;;;41.70;24.50;;;13.50;99.90;;;;;;5027444;28;20199;-75
2023/05/11 03:44:26;;;;;;;30.52;21.25;;;13.50;99.90;;;;;;5014336;28;20653;-75
2023/05/11 03:46:55;;;;;;;36.65;24.38;;;13.50;99.90;;;;;;5012657;28;20252;-74
2023/05/11 03:49:23;;;;;;;31.70;21.17;;;13.50;99.90;;;;;;5017450;28;20223;-74
2023/05/11 03:51:50;;;;;;;32.22;21.17;;;13.60;99.90;;;;;;5012943;28;20723;-76
2023/05/11 03:54:17;;;;;;;29.00;21.25;;;13.60;99.90;;;;;;5024325;28;20235;-75
2023/05/11 03:56:44;;;;;;;32.50;21.38;;;13.60;99.90;;;;;;5012364;28;20300;-76
2023/05/11 03:59:15;;;;;;;31.67;21.65;;;13.70;99.90;;;;;;5014243;28;20227;-75
2023/05/11 04:01:43;;;;;;;26.55;19.25;;;13.60;99.90;;;;;;5019210;28;20288;-75
2023/05/11 04:04:11;;;;;;;27.65;20.17;;;13.60;99.90;;;;;;5018439;28;20283;-75
2023/05/11 04:06:38;;;;;;;29.38;19.13;;;13.60;99.90;;;;;;5032132;28;20242;-74
2023/05/11 04:09:05;;;;;;;26.00;18.67;;;13.60;99.90;;;;;;5025678;28;20228;-75
2023/05/11 04:11:36;;;;;;;26.55;20.23;;;13.50;99.90;;;;;;5016175;28;20298;-74
2023/05/11 04:14:03;;;;;;;26.42;19.85;;;13.50;99.90;;;;;;5022208;28;20227;-76
2023/05/11 04:16:31;;;;;;;28.30;19.58;;;13.60;99.90;;;;;;5024625;28;20188;-74
2023/05/11 04:18:58;;;;;;;24.17;17.65;;;13.50;99.90;;;;;;5032699;28;20222;-75
2023/05/11 04:21:26;;;;;;;25.95;19.20;;;13.60;99.90;;;;;;5020884;28;20656;-76
2023/05/11 04:23:54;;;;;;;24.90;19.40;;;13.60;99.90;;;;;;5020595;28;20208;-75
2023/05/11 04:26:21;;;;;;;25.70;19.52;;;13.60;99.90;;;;;;5027264;28;20229;-74
2023/05/11 04:28:50;;;;;;;26.83;20.08;;;13.60;99.90;;;;;;5021130;28;20196;-75
2023/05/11 04:31:17;;;;;;;28.00;21.20;;;13.60;99.90;;;;;;5023851;28;20308;-75
2023/05/11 04:33:44;;;;;;;24.90;18.45;;;13.60;99.90;;;;;;5020984;28;20201;-74
2023/05/11 04:36:11;;;;;;;29.08;19.52;;;13.60;99.90;;;;;;5021019;28;20244;-76
2023/05/11 04:38:39;;;;;;;27.58;21.83;;;13.60;99.90;;;;;;5029164;28;20197;-75
2023/05/11 04:41:07;;;;;;;24.50;19.40;;;13.70;99.90;;;;;;5018863;28;20200;-75
2023/05/11 04:43:34;;;;;;;28.20;20.83;;;13.70;99.90;;;;;;5026315;28;20188;-77
2023/05/11 04:46:01;;;;;;;27.90;20.17;;;13.70;99.90;;;;;;5044258;28;20201;-76
2023/05/11 04:48:31;;;;;;;27.00;20.90;;;13.70;99.90;;;;;;5040417;28;20184;-74
2023/05/11 04:50:58;;;;;;;25.50;21.00;;;13.70;99.90;;;;;;5010505;28;20275;-74
2023/05/11 04:53:25;;;;;;;27.50;18.15;;;13.70;99.90;;;;;;5025833;28;20220;-76
2023/05/11 04:55:53;;;;;;;24.08;19.05;;;13.70;99.90;;;;;;5023739;28;20212;-74
2023/05/11 04:58:20;;;;;;;20.35;16.30;;;13.60;99.90;;;;;;5023616;28;20545;-74
2023/05/11 05:00:47;;;;;;;22.45;17.63;;;13.70;99.90;;;;;;5023806;28;20282;-75
2023/05/11 05:03:14;;;;;;;22.38;17.42;;;13.70;99.90;;;;;;5012198;28;20293;-77
2023/05/11 05:05:41;;;;;;;24.33;18.63;;;13.80;99.90;;;;;;5015004;28;20201;-74
2023/05/11 05:08:08;;;;;;;22.70;17.25;;;13.70;99.90;;;;;;5024220;28;20210;-74
2023/05/11 05:10:35;;;;;;;22.15;17.92;;;13.70;99.90;;;;;;5017867;28;20579;-75
2023/05/11 05:13:04;;;;;;;21.73;18.15;;;13.60;99.90;;;;;;5006217;28;20232;-74
2023/05/11 05:15:31;;;;;;;23.20;16.27;;;13.60;99.90;;;;;;5015366;28;20204;-75
2023/05/11 05:17:58;;;;;;;24.08;18.10;;;13.60;99.90;;;;;;5013037;28;20206;-76
2023/05/11 05:20:25;;;;;;;26.50;18.20;;;13.60;99.90;;;;;;5014994;28;20216;-75
2023/05/11 05:22:51;;;;;;;22.83;16.88;;;13.70;99.90;;;;;;5013928;28;20296;-75
2023/05/11 05:25:20;;;;;;;24.38;17.52;;;13.70;99.90;;;;;;5019175;28;20193;-74
2023/05/11 05:27:47;;;;;;;27.95;20.30;;;13.70;99.90;;;;;;5014183;28;20231;-76
2023/05/11 05:30:15;;;;;;;25.20;17.70;;;13.70;99.90;;;;;;5018615;28;20224;-76
2023/05/11 05:32:42;;;;;;;23.10;17.50;;;13.70;99.90;;;;;;5025689;28;20227;-76
2023/05/11 05:35:09;;;;;;;30.80;21.08;;;13.70;99.90;;;;;;5025253;28;20220;-77
2023/05/11 05:37:36;;;;;;;23.45;18.00;;;13.80;99.90;;;;;;5030465;28;20227;-76
2023/05/11 05:40:06;;;;;;;30.63;22.73;;;13.70;99.90;;;;;;5022899;28;20334;-77
2023/05/11 05:42:32;;;;;;;33.63;21.83;;;13.70;99.90;;;;;;5020452;28;20203;-76
2023/05/11 05:45:00;;;;;;;28.83;20.90;;;13.70;99.90;;;;;;5011723;28;20554;-76
2023/05/11 05:47:28;;;;;;;26.90;17.98;;;13.80;99.90;;;;;;5015607;28;20214;-76
2023/05/11 05:49:55;;;;;;;26.38;17.80;;;13.80;99.90;;;;;;5016129;28;20224;-76
2023/05/11 05:52:22;;;;;;;26.38;20.45;;;13.90;99.90;;;;;;5016608;28;20525;-76
2023/05/11 05:54:49;;;;;;;29.48;20.77;;;14.10;99.90;;;;;;5021837;28;20251;-75
2023/05/11 05:57:16;;;;;;;24.80;19.73;;;14.10;99.90;;;;;;5014107;28;20544;-76
2023/05/11 05:59:42;;;;;;;28.42;21.20;;;14.20;99.90;;;;;;5011047;28;20307;-77
2023/05/11 06:02:10;;;;;;;27.17;19.83;;;14.30;99.90;;;;;;5025380;28;20212;-75
2023/05/11 06:04:44;;;;;;;30.17;21.75;;;14.40;99.90;;;;;;5019078;28;20759;-77
2023/05/11 06:07:12;;;;;;;27.15;18.55;;;14.50;99.90;;;;;;5027787;28;20601;-79
2023/05/11 06:09:40;;;;;;;28.85;19.75;;;14.50;99.90;;;;;;5018140;28;20234;-77
2023/05/11 06:12:08;;;;;;;28.73;19.20;;;14.50;99.90;;;;;;5025972;28;20555;-78
2023/05/11 06:14:35;;;;;;;31.10;22.08;;;14.60;99.90;;;;;;5020807;28;20212;-76
2023/05/11 06:17:02;;;;;;;25.83;18.63;;;14.60;99.90;;;;;;5023487;28;20213;-77
2023/05/11 06:19:29;;;;;;;25.75;20.05;;;14.70;99.90;;;;;;5017783;28;20216;-78
2023/05/11 06:21:59;;;;;;;23.50;19.33;;;14.70;99.90;;;;;;5017437;28;20224;-80
2023/05/11 06:24:26;;;;;;;20.40;15.50;;;15.00;99.90;;;;;;5012423;28;20254;-80
2023/05/11 06:26:55;;;;;;;19.52;15.90;;;15.20;99.90;;;;;;5018635;28;20292;-78
2023/05/11 06:29:22;;;;;;;21.45;16.67;;;15.10;99.90;;;;;;5018579;28;20213;-77
2023/05/11 06:31:51;;;;;;;18.75;15.70;;;15.30;99.90;;;;;;5031152;28;20225;-76
2023/05/11 06:34:19;;;;;;;24.63;16.50;;;15.30;99.90;;;;;;5035377;28;20252;-77
2023/05/11 06:36:46;;;;;;;21.98;16.23;;;15.40;99.90;;;;;;5003813;28;20217;-78
2023/05/11 06:39:14;;;;;;;19.02;15.52;;;15.50;99.90;;;;;;5010443;28;20301;-76
2023/05/11 06:41:41;;;;;;;19.92;15.70;;;15.60;99.90;;;;;;5015243;28;20295;-74
2023/05/11 06:44:08;;;;;;;21.73;17.02;;;15.70;99.90;;;;;;5008160;28;20294;-79
2023/05/11 06:46:37;;;;;;;19.50;14.38;;;15.80;99.90;;;;;;5014073;28;20194;-79
2023/05/11 06:49:04;;;;;;;21.33;16.25;;;15.90;99.90;;;;;;5012798;28;20318;-75
2023/05/11 06:51:31;;;;;;;21.30;15.20;;;16.00;99.90;;;;;;5018509;28;20290;-76
2023/05/11 06:53:58;;;;;;;15.88;13.77;;;16.00;99.90;;;;;;5017729;28;20218;-77
2023/05/11 06:56:26;;;;;;;17.70;14.17;;;16.20;99.90;;;;;;5018960;28;20200;-76
2023/05/11 06:58:53;;;;;;;16.87;13.80;;;16.30;99.90;;;;;;5025480;28;20545;-76
2023/05/11 07:01:20;;;;;;;17.52;13.57;;;16.40;99.90;;;;;;5013671;28;20453;-77
2023/05/11 07:03:48;;;;;;;20.13;14.23;;;16.40;99.90;;;;;;5019982;28;20236;-75
2023/05/11 07:06:15;;;;;;;18.23;14.80;;;16.40;99.90;;;;;;5026445;28;20520;-76
2023/05/11 07:08:41;;;;;;;18.73;14.47;;;16.40;99.90;;;;;;5004143;28;20584;-78
2023/05/11 07:11:09;;;;;;;20.60;16.60;;;16.50;99.90;;;;;;5017690;28;20479;-78
2023/05/11 07:13:37;;;;;;;23.33;16.30;;;16.50;99.90;;;;;;5005133;28;20501;-78
2023/05/11 07:16:05;;;;;;;23.43;18.03;;;16.60;99.90;;;;;;5025623;28;20541;-79
2023/05/11 07:18:33;;;;;;;18.20;14.50;;;16.50;99.90;;;;;;5007362;28;20921;-77
2023/05/11 07:21:00;;;;;;;24.03;15.17;;;16.60;99.90;;;;;;5014125;28;20475;-77
2023/05/11 07:23:27;;;;;;;18.87;14.17;;;16.60;99.90;;;;;;5018383;28;20854;-77
2023/05/11 07:26:02;;;;;;;22.97;16.70;;;16.60;99.90;;;;;;5008310;28;20540;-77
2023/05/11 07:28:29;;;;;;;20.70;18.13;;;16.50;99.90;;;;;;5016115;28;20929;-76
2023/05/11 07:30:57;;;;;;;21.43;15.43;;;16.60;99.90;;;;;;5011136;28;20538;-78
2023/05/11 07:33:24;;;;;;;18.83;14.57;;;16.40;99.90;;;;;;5017986;28;20427;-78
2023/05/11 07:35:51;;;;;;;20.30;14.60;;;16.40;99.90;;;;;;5028505;28;20971;-79
2023/05/11 07:38:18;;;;;;;17.23;15.07;;;16.50;99.90;;;;;;5022908;28;20438;-79
2023/05/11 07:40:45;;;;;;;16.73;14.97;;;16.60;99.90;;;;;;5019004;28;20543;-80
2023/05/11 07:43:12;;;;;;;15.43;12.67;;;16.90;99.90;;;;;;5019385;28;20969;-77
2023/05/11 07:45:39;;;;;;;18.60;15.07;;;16.90;99.90;;;;;;5019919;28;20483;-78
2023/05/11 07:48:08;;;;;;;17.10;14.27;;;16.90;99.90;;;;;;5025575;28;20484;-80
2023/05/11 07:50:35;;;;;;;17.40;15.00;;;17.00;99.90;;;;;;5019158;28;20482;-78
2023/05/11 07:53:04;;;;;;;19.03;14.03;;;17.00;99.90;;;;;;5022680;28;20432;-78
2023/05/11 07:55:32;;;;;;;15.87;13.00;;;17.10;99.90;;;;;;5020992;28;20443;-80
2023/05/11 07:57:59;;;;;;;14.97;12.97;;;17.30;99.90;;;;;;5018910;28;20471;-79
2023/05/11 08:00:26;;;;;;;15.47;12.10;;;17.40;99.90;;;;;;5014899;28;20862;-79
2023/05/11 08:02:53;;;;;;;14.97;11.53;;;17.50;99.90;;;;;;5021806;28;20447;-78
2023/05/11 08:05:21;;;;;;;15.67;13.53;;;17.70;99.90;;;;;;5012247;28;20435;-80
2023/05/11 08:07:48;;;;;;;14.73;11.10;;;17.90;99.90;;;;;;5023499;28;20502;-78
2023/05/11 08:10:15;;;;;;;14.90;12.80;;;18.20;99.90;;;;;;5023047;28;20554;-78
2023/05/11 08:12:42;;;;;;;13.27;11.27;;;18.50;99.90;;;;;;5010746;28;20515;-79
2023/05/11 08:15:10;;;;;;;13.33;11.37;;;18.60;99.90;;;;;;5017960;28;20472;-79
2023/05/11 08:17:37;;;;;;;17.90;13.80;;;18.80;99.90;;;;;;5030767;28;21006;-79
2023/05/11 08:20:05;;;;;;;13.87;12.23;;;18.90;99.90;;;;;;5018440;28;20492;-79
2023/05/11 08:22:33;;;;;;;11.63;9.87;;;18.80;99.90;;;;;;5039660;28;20527;-79
2023/05/11 08:25:00;;;;;;;14.30;11.13;;;18.70;99.90;;;;;;5028270;28;20531;-78
2023/05/11 08:27:27;;;;;;;14.07;11.20;;;18.80;99.90;;;;;;5019366;28;20459;-78
2023/05/11 08:29:55;;;;;;;16.20;12.20;;;18.80;99.90;;;;;;5019701;28;20546;-78
2023/05/11 08:32:22;;;;;;;15.67;14.03;;;18.80;99.90;;;;;;5015048;28;20563;-77
2023/05/11 08:34:48;;;;;;;27.83;24.83;;;19.00;99.90;;;;;;5025233;28;20543;-78
2023/05/11 08:37:15;;;;;;;24.53;21.93;;;19.10;99.90;;;;;;5019628;28;20442;-78
2023/05/11 08:39:44;;;;;;;18.13;15.03;;;19.20;99.90;;;;;;5012782;28;20490;-77
2023/05/11 08:42:15;;;;;;;16.30;13.03;;;19.30;99.90;;;;;;5023387;28;20440;-80
2023/05/11 08:44:44;;;;;;;15.47;11.90;;;19.40;99.90;;;;;;5011925;28;20457;-78
2023/05/11 08:47:12;;;;;;;12.40;10.67;;;19.60;99.90;;;;;;5013368;28;20915;-78
2023/05/11 08:49:39;;;;;;;15.80;12.73;;;19.50;99.90;;;;;;5016585;28;20519;-80
2023/05/11 08:52:08;;;;;;;14.27;11.73;;;19.50;99.90;;;;;;5019102;28;20435;-79
2023/05/11 08:54:36;;;;;;;13.40;11.40;;;19.40;99.90;;;;;;5009784;28;20544;-77
2023/05/11 08:57:05;;;;;;;15.70;12.13;;;19.40;99.90;;;;;;5021645;28;20431;-78
2023/05/11 08:59:33;;;;;;;12.47;9.40;;;19.70;99.90;;;;;;5021015;28;20471;-77
2023/05/11 09:02:02;;;;;;;12.47;10.43;;;19.90;99.90;;;;;;5016994;28;20435;-78
2023/05/11 09:04:29;;;;;;;12.07;10.00;;;20.20;99.90;;;;;;5011345;28;20532;-77
2023/05/11 09:06:58;;;;;;;11.90;10.13;;;20.40;99.90;;;;;;5026832;28;20461;-77
2023/05/11 09:09:25;;;;;;;13.03;11.40;;;20.30;99.90;;;;;;5012285;28;20487;-78
2023/05/11 09:11:54;;;;;;;14.10;12.60;;;20.40;99.90;;;;;;5033530;28;20530;-75
2023/05/11 09:14:22;;;;;;;15.20;12.17;;;20.50;99.90;;;;;;5033325;28;20472;-77
2023/05/11 09:16:50;;;;;;;12.80;11.40;;;20.50;99.90;;;;;;5015432;28;20450;-77
2023/05/11 09:19:17;;;;;;;13.97;11.27;;;20.50;99.90;;;;;;5033310;28;20458;-75
2023/05/11 09:21:46;;;;;;;12.77;10.80;;;20.40;99.90;;;;;;5021784;28;20538;-80
2023/05/11 09:24:14;;;;;;;14.40;11.53;;;20.50;99.90;;;;;;5022165;28;20541;-78
2023/05/11 09:26:41;;;;;;;14.20;11.50;;;20.60;99.90;;;;;;5028283;28;20821;-79
2023/05/11 09:29:08;;;;;;;15.10;12.07;;;20.80;99.90;;;;;;5032998;28;20517;-79
2023/05/11 09:31:39;;;;;;;13.50;10.97;;;20.90;99.90;;;;;;5021526;28;20947;-76
2023/05/11 09:34:14;;;;;;;12.97;10.73;;;20.90;99.90;;;;;;5023309;28;20470;-79
2023/05/11 09:36:41;;;;;;;12.83;11.53;;;20.90;99.90;;;;;;5032141;28;20455;-77
2023/05/11 09:39:12;;;;;;;11.20;9.80;;;20.90;99.90;;;;;;5030134;28;20457;-77
2023/05/11 09:41:39;;;;;;;11.50;9.73;;;20.90;99.90;;;;;;5025028;28;20511;-79
2023/05/11 09:44:09;;;;;;;12.10;10.50;;;20.90;99.90;;;;;;5020093;28;20534;-78
2023/05/11 09:46:38;;;;;;;13.30;10.93;;;20.80;99.90;;;;;;5027780;28;20779;-77
2023/05/11 09:49:07;;;;;;;13.00;10.77;;;20.70;99.90;;;;;;5022445;28;20563;-76
2023/05/11 09:51:35;;;;;;;13.50;10.50;;;20.70;99.90;;;;;;5023353;28;20458;-77
2023/05/11 09:54:16;;;;;;;16.87;12.20;;;20.80;99.90;;;;;;5029549;28;20449;-77
2023/05/11 09:56:46;;;;;;;14.03;12.10;;;20.50;99.90;;;;;;5033134;28;20447;-75
2023/05/11 09:59:16;;;;;;;15.30;13.67;;;20.40;99.90;;;;;;5016486;28;20862;-76
2023/05/11 10:01:44;;;;;;;17.33;11.47;;;20.30;99.90;;;;;;5010872;28;20519;-74
2023/05/11 10:04:12;;;;;;;13.10;10.50;;;20.10;99.90;;;;;;5015901;28;20440;-74
2023/05/11 10:06:47;;;;;;;12.13;10.40;;;20.00;99.90;;;;;;5015099;28;20809;-76
2023/05/11 10:09:15;;;;;;;15.33;11.37;;;19.90;99.90;;;;;;5015614;28;20517;-77
2023/05/11 10:11:45;;;;;;;14.77;11.77;;;19.90;99.90;;;;;;5027325;28;20444;-76
2023/05/11 10:14:13;;;;;;;15.00;12.90;;;19.80;99.90;;;;;;5035478;28;20463;-77
2023/05/11 10:16:41;;;;;;;14.93;12.30;;;19.80;99.90;;;;;;5029173;28;20439;-76
2023/05/11 10:19:13;;;;;;;14.33;11.10;;;19.80;99.90;;;;;;5033603;28;20883;-76
2023/05/11 10:21:41;;;;;;;15.57;11.70;;;19.80;99.90;;;;;;5017621;28;20455;-75
2023/05/11 10:24:09;;;;;;;15.00;11.43;;;19.80;99.90;;;;;;5024684;28;20463;-77
2023/05/11 10:26:36;;;;;;;14.40;10.17;;;19.90;99.90;;;;;;5026191;28;20547;-75
2023/05/11 10:29:04;;;;;;;14.63;11.07;;;20.10;99.90;;;;;;5021577;28;20486;-75
2023/05/11 10:31:33;;;;;;;17.10;12.03;;;20.10;99.90;;;;;;5019291;28;20542;-74
2023/05/11 10:34:02;;;;;;;18.70;14.43;;;20.00;99.90;;;;;;5014904;28;20458;-76
2023/05/11 10:36:30;;;;;;;14.00;11.30;;;19.90;99.90;;;;;;5019210;28;20440;-76
2023/05/11 10:38:57;;;;;;;19.30;13.03;;;19.80;99.90;;;;;;5022948;28;20455;-75
2023/05/11 10:41:49;;;;;;;14.27;11.40;;;19.80;99.90;;;;;;5017370;28;20453;-75
2023/05/11 10:44:34;;;;;;;15.50;11.00;;;19.80;99.90;;;;;;5008458;28;20500;-77
2023/05/11 10:47:20;;;;;;;14.33;11.23;;;19.80;99.90;;;;;;5007650;28;20523;-76
2023/05/11 10:50:08;;;;;;;16.87;11.00;;;19.80;99.90;;;;;;4997541;28;20582;-74
2023/05/11 10:53:03;;;;;;;15.20;10.70;;;19.70;99.90;;;;;;5003857;28;20436;-76
2023/05/11 10:55:42;;;;;;;15.87;11.23;;;19.70;99.90;;;;;;5001837;28;20448;-74
2023/05/11 10:58:15;;;;;;;15.97;10.80;;;19.70;99.90;;;;;;4993342;28;20472;-76
2023/05/11 11:01:16;;;;;;;16.93;11.93;;;19.60;99.90;;;;;;5013635;28;20491;-74
2023/05/11 11:03:56;;;;;;;15.10;10.60;;;19.50;99.90;;;;;;5002413;28;20531;-75
2023/05/11 11:06:24;;;;;;;18.93;10.97;;;19.40;99.90;;;;;;5019345;28;20436;-77
2023/05/11 11:09:00;;;;;;;15.20;10.83;;;19.30;99.90;;;;;;5026629;28;20483;-75
2023/05/11 11:11:32;;;;;;;15.57;11.33;;;19.40;99.90;;;;;;5019603;28;20443;-76
2023/05/11 11:14:02;;;;;;;17.30;11.93;;;19.40;99.90;;;;;;5015011;28;20472;-75
2023/05/11 11:16:30;;;;;;;16.37;11.40;;;19.30;99.90;;;;;;5023572;28;20447;-74
2023/05/11 11:19:34;;;;;;;15.77;12.90;;;19.20;99.90;;;;;;5025887;28;20458;-77
2023/05/11 11:22:02;;;;;;;15.67;11.90;;;19.30;99.90;;;;;;5016311;28;20524;-75
2023/05/11 11:24:52;;;;;;;17.33;11.53;;;19.40;99.90;;;;;;5029672;28;20514;-76
2023/05/11 11:27:19;;;;;;;14.93;11.50;;;19.50;99.90;;;;;;5021295;28;20457;-73
2023/05/11 11:30:17;;;;;;;14.73;11.27;;;19.50;99.90;;;;;;5029382;28;20566;-76
2023/05/11 11:32:44;;;;;;;17.13;10.87;;;19.60;99.90;;;;;;5012052;28;20535;-75
2023/05/11 11:35:44;;;;;;;14.67;10.17;;;19.70;99.90;;;;;;5016574;28;20467;-76
2023/05/11 11:38:13;;;;;;;14.10;9.87;;;19.80;99.90;;;;;;5013199;28;20911;-76
2023/05/11 11:40:43;;;;;;;14.00;9.93;;;19.80;99.90;;;;;;5010177;28;20514;-77
2023/05/11 11:43:11;;;;;;;10.60;9.00;;;19.90;99.90;;;;;;5024531;28;20480;-76
2023/05/11 11:45:39;;;;;;;13.80;10.20;;;20.00;99.90;;;;;;5024964;28;20445;-76
2023/05/11 11:48:14;;;;;;;15.20;10.13;;;20.00;99.90;;;;;;5018793;28;20590;-75
2023/05/11 11:50:46;;;;;;;12.50;9.67;;;20.00;99.90;;;;;;5028765;28;20546;-73
2023/05/11 11:54:04;;;;;;;11.17;9.30;;;20.00;99.90;;;;;;5020708;28;20442;-74
2023/05/11 11:56:40;;;;;;;12.23;9.47;;;20.20;99.90;;;;;;5024663;28;20437;-77
2023/05/11 11:59:10;;;;;;;12.10;8.60;;;20.10;99.90;;;;;;5019145;28;20493;-74
2023/05/11 12:01:39;;;;;;;18.60;9.43;;;20.00;99.90;;;;;;5024612;28;20449;-77
2023/05/11 12:04:44;;;;;;;16.10;9.90;;;19.80;99.90;;;;;;5017102;28;20444;-76
2023/05/11 12:07:15;;;;;;;11.80;9.70;;;19.70;99.90;;;;;;5011691;28;20439;-76
2023/05/11 12:09:44;;;;;;;12.30;10.37;;;19.60;99.90;;;;;;5022853;28;20487;-75
2023/05/11 12:12:13;;;;;;;14.97;11.20;;;19.60;99.90;;;;;;5026414;28;20424;-76
2023/05/11 12:14:47;;;;;;;14.83;9.87;;;19.50;99.90;;;;;;5029334;28;20464;-76
2023/05/11 12:17:15;;;;;;;12.20;9.83;;;19.30;99.90;;;;;;5040966;28;20457;-77
2023/05/11 12:19:45;;;;;;;13.13;9.23;;;19.30;99.90;;;;;;5020855;28;20472;-73
2023/05/11 12:22:15;;;;;;;13.33;10.00;;;19.30;99.90;;;;;;5017160;28;20854;-76
2023/05/11 12:24:43;;;;;;;11.10;8.87;;;19.40;99.90;;;;;;5022102;28;20436;-74
2023/05/11 12:27:10;;;;;;;11.17;8.47;;;19.40;99.90;;;;;;5019329;28;20482;-74
2023/05/11 12:29:39;;;;;;;13.97;9.47;;;19.60;99.90;;;;;;5028228;28;20486;-75
2023/05/11 12:32:11;;;;;;;10.00;8.20;;;19.60;99.90;;;;;;5023421;28;20460;-74
2023/05/11 12:34:38;;;;;;;8.00;7.20;;;19.60;99.90;;;;;;5021806;28;20449;-78
2023/05/11 12:37:07;;;;;;;8.53;7.63;;;19.60;99.90;;;;;;5019358;28;20470;-76
2023/05/11 12:39:34;;;;;;;9.03;7.27;;;19.70;99.90;;;;;;5016969;28;20930;-75
2023/05/11 12:42:01;;;;;;;8.23;7.40;;;19.90;99.90;;;;;;5021711;28;21004;-76